Flight Track Log - Related Links

Times and Time Zones

All times are in EDT time to prevent confusion due to time zone crossing. See the VH-YEN flight status page for this flight to view local times or setup timezone preferences in your user account.

Time Position Orientation Groundspeed Altitude Reporting Facility
EDT Latitude Longitude Course Direction KTS MPH feet Rate Location/Type
Thu 09:40:18 PM -34.0473 150.6645 306° West 91 105 1,000  Level Aus ATC (RADAR)
Thu 09:41:18 PM -34.0353 150.6447 306° West 87 100 1,800 528 Climbing Aus ATC (RADAR)
Thu 09:42:23 PM -34.0011 150.6603 21° North 121 139 2,100 253 Climbing Aus ATC (RADAR)
Thu 09:42:53 PM -33.9873 150.6735 38° Northeast 125 144 2,200 462 Climbing Aus ATC (RADAR)
Thu 09:43:28 PM -33.9735 150.6917 48° Northeast 128 147 2,600 640 Climbing Aus ATC (RADAR)
Thu 09:44:08 PM -33.9574 150.7123 47° Northeast 126 145 3,000 320 Climbing Aus ATC (RADAR)
Thu 09:44:43 PM -33.9404 150.7227 27° Northeast 123 142 3,000 343 Level Aus ATC (RADAR)
Thu 09:45:18 PM -33.9222 150.7316 22° Northeast 122 140 3,400 720 Climbing Aus ATC (RADAR)
Thu 09:45:58 PM -33.9031 150.7339 North 105 121 3,900 686 Climbing Aus ATC (RADAR)
Thu 09:47:03 PM -33.8741 150.7273 349° North 101 116 4,600 457 Climbing Aus ATC (RADAR)
Thu 09:47:43 PM -33.8514 150.7340 14° North 126 145 4,700 400 Climbing Aus ATC (RADAR)
Thu 09:48:18 PM -33.8300 150.7390 11° North 133 153 5,100 225 Climbing Aus ATC (RADAR)
Thu 09:49:03 PM -33.7995 150.7435 North 147 169 5,000 -57 Descending Aus ATC (RADAR)
Thu 09:50:03 PM -33.7584 150.7471 North 150 173 5,000  Level Aus ATC (RADAR)
Thu 09:50:48 PM -33.7288 150.7630 24° Northeast 157 181 5,000  Level Aus ATC (RADAR)
Thu 09:51:32 PM -33.7003 150.7837 31° Northeast 156 180 5,000 346 Level Aus ATC (RADAR)
Thu 09:52:32 PM -33.6647 150.7961 16° North 129 148 5,600 625 Climbing Aus ATC (RADAR)
Thu 09:53:08 PM -33.6465 150.8035 19° North 118 136 6,000 600 Climbing Aus ATC (RADAR)
Thu 09:53:52 PM -33.6263 150.8065 North 100 115 6,400 424 Climbing Aus ATC (RADAR)
Thu 09:54:47 PM -33.6001 150.8107 North 101 116 6,700 400 Climbing Aus ATC (RADAR)
Thu 09:55:37 PM -33.5768 150.8301 35° Northeast 130 150 7,100 565 Climbing Aus ATC (RADAR)
Thu 09:56:12 PM -33.5657 150.8544 61° Northeast 141 162 7,500 600 Climbing Aus ATC (RADAR)
Thu 09:57:07 PM -33.5461 150.8788 46° Northeast 106 122 8,000 470 Climbing Aus ATC (RADAR)
Thu 09:58:07 PM -33.5233 150.8849 13° North 86 99 8,400 457 Climbing Aus ATC (RADAR)
Thu 09:58:52 PM -33.5058 150.8933 22° Northeast 95 109 8,800 525 Climbing Aus ATC (RADAR)
Thu 09:59:27 PM -33.4926 150.9059 39° Northeast 103 119 9,100 231 Climbing Aus ATC (RADAR)
Thu 10:00:10 PM -33.4771 150.9291 51° Northeast 132 152 9,100  Level Aus ATC (RADAR)
Thu 10:01:06 PM -33.4453 150.9509 30° Northeast 134 154 9,100  Level Aus ATC (RADAR)
Thu 10:02:11 PM -33.4065 150.9742 27° Northeast 147 169 9,100 48 Level Aus ATC (RADAR)
Thu 10:03:11 PM -33.3723 150.9964 29° Northeast 136 157 9,200  Climbing Aus ATC (RADAR)
Thu 10:03:51 PM -33.3495 151.0113 29° Northeast 141 162 9,100 -80 Descending Aus ATC (RADAR)
Thu 10:04:26 PM -33.3286 151.0246 28° Northeast 147 169 9,100  Level Aus ATC (RADAR)
Thu 10:05:01 PM -33.3080 151.0443 39° Northeast 161 185 9,100  Level Aus ATC (RADAR)
Thu 10:05:41 PM -33.2843 151.0678 40° Northeast 161 185 9,100  Level Aus ATC (RADAR)
Thu 10:06:16 PM -33.2651 151.0875 41° Northeast 160 184 9,100  Level Aus ATC (RADAR)
Thu 10:07:16 PM -33.2302 151.1210 39° Northeast 159 183 9,100  Level Aus ATC (RADAR)
Thu 10:08:01 PM -33.2041 151.1449 37° Northeast 157 181 9,100 67 Level Aus ATC (RADAR)
Thu 10:08:46 PM -33.1764 151.1682 35° Northeast 158 182 9,200 171 Climbing Aus ATC (RADAR)
Thu 10:09:46 PM -33.1429 151.2025 41° Northeast 164 189 9,400 382 Climbing Aus ATC (RADAR)
Thu 10:10:36 PM -33.1224 151.2394 56° Northeast 155 178 9,900 424 Climbing Aus ATC (RADAR)
Thu 10:11:11 PM -33.1087 151.2636 56° Northeast 143 165 10,000 76 Climbing Aus ATC (RADAR)
Thu 10:11:55 PM -33.0898 151.2926 52° Northeast 148 170 10,000  Level Aus ATC (RADAR)
Thu 10:12:36 PM -33.0677 151.3147 40° Northeast 151 174 10,000  Level Aus ATC (RADAR)
Thu 10:13:10 PM -33.0473 151.3287 30° Northeast 145 167 10,000  Level Aus ATC (RADAR)
Thu 10:13:55 PM -33.0227 151.3326 North 115 132 10,000 -57 Level Aus ATC (RADAR)
Thu 10:14:56 PM -32.9948 151.3190 338° Northwest 107 123 9,900 283 Descending Aus ATC (RADAR)
Thu 10:15:41 PM -33.0065 151.3048 225° Southwest 98 113 10,500 608 Climbing Aus ATC (RADAR)
Thu 10:16:15 PM -33.0299 151.3158 158° South 141 162 10,700 -115 Climbing Aus ATC (RADAR)
Thu 10:17:25 PM -33.0807 151.3437 155° Southeast 172 198 10,300 -343 Descending Aus ATC (RADAR)
Thu 10:18:00 PM -33.1056 151.3460 176° South 160 184 10,100 -67 Descending Aus ATC (RADAR)
Thu 10:18:55 PM -33.1222 151.3173 235° Southwest 105 121 10,200 -67 Climbing Aus ATC (RADAR)
Thu 10:19:30 PM -33.1241 151.2982 263° West 97 112 10,000 -185 Descending Aus ATC (RADAR)
Thu 10:20:00 PM -33.1197 151.2824 289° West 97 112 10,000 -92 Level Aus ATC (RADAR)
Thu 10:20:35 PM -33.1250 151.2623 253° West 108 124 9,900 -71 Descending Aus ATC (RADAR)
Thu 10:21:25 PM -33.1415 151.2387 230° Southwest 110 127 9,900 -360 Level Aus ATC (RADAR)
Thu 10:22:15 PM -33.1712 151.2199 208° Southwest 151 174 9,300 -720 Descending Aus ATC (RADAR)

Login

Don't have an account? Register now (free) for customized features, flight alerts, and more!